Time;durP1;ratioP1;P1;durP2;ratioP2;P2;SDS_P1;SDS_P2;PMS_P1;PMS_P2;Temp;Humidity;BMP_temperature;BMP_pressure;BME280_temperature;BME280_humidity;BME280_pressure;Samples;Min_cycle;Max_cycle;Signal;HPM_P1;HPM_P2
2021/07/21 02:03:46;0.00;0.00;0.62;0.00;0.00;0.62;;;;;21.70;1.00;;;;;;2517349;57;984;-90
2021/07/21 02:06:14;160579.00;0.54;278.04;0.00;0.00;0.62;;;;;21.40;1.00;;;;;;2517264;57;1383;-90
2021/07/21 02:08:42;9503.00;0.03;17.09;0.00;0.00;0.62;;;;;21.70;1.00;;;;;;2520936;56;1935;-91
2021/07/21 02:11:10;161647.00;0.54;279.88;0.00;0.00;0.62;;;;;21.80;1.00;;;;;;2531289;56;996;-90
2021/07/21 02:13:38;12202.00;0.04;21.76;0.00;0.00;0.62;;;;;21.90;1.00;;;;;;2541041;56;1003;-90
2021/07/21 02:16:06;4632.00;0.02;8.65;0.00;0.00;0.62;;;;;21.90;1.00;;;;;;2555999;56;1377;-90
2021/07/21 02:18:35;44415.00;0.15;77.53;0.00;0.00;0.62;;;;;21.70;1.00;;;;;;2552176;56;1006;-91
2021/07/21 02:21:04;9011.00;0.03;16.24;0.00;0.00;0.62;;;;;21.70;1.00;;;;;;2549048;56;969;-90
2021/07/21 02:23:33;130664.00;0.44;226.47;0.00;0.00;0.62;;;;;21.60;1.00;;;;;;2548045;56;935;-91
2021/07/21 02:26:01;240593.00;0.80;415.77;13110.00;0.04;23.34;;;;;21.70;1.00;;;;;;2542062;56;1391;-91
2021/07/21 02:28:29;102245.00;0.34;177.45;0.00;0.00;0.62;;;;;21.40;1.00;;;;;;2542240;56;990;-90
2021/07/21 02:31:01;298158.00;0.99;514.75;63524.00;0.21;110.57;;;;;21.80;1.00;;;;;;2537950;56;968;-91
2021/07/21 02:33:32;160031.00;0.53;277.09;0.00;0.00;0.62;;;;;21.80;1.00;;;;;;2552466;56;937;-91
2021/07/21 02:35:59;121508208.00;405.03;72675192.00;67994.00;0.23;118.29;;;;;21.70;1.00;;;;;;2562331;55;1379;-89
2021/07/21 02:38:28;0.00;0.00;0.62;0.00;0.00;0.62;;;;;21.90;1.00;;;;;;2563191;56;1077;-91
2021/07/21 02:40:57;54268.00;0.18;94.57;0.00;0.00;0.62;;;;;22.10;1.00;;;;;;2562478;56;1039;-90
2021/07/21 02:43:24;86304.00;0.29;149.93;0.00;0.00;0.62;;;;;21.80;1.00;;;;;;2554816;56;993;-90
2021/07/21 02:45:51;113395.00;0.38;196.69;0.00;0.00;0.62;;;;;21.20;1.00;;;;;;2554239;56;1403;-91
2021/07/21 02:48:18;45518.00;0.15;79.43;0.00;0.00;0.62;;;;;20.90;1.00;;;;;;2557425;56;1082;-91
2021/07/21 02:50:49;68848.00;0.23;119.77;0.00;0.00;0.62;;;;;20.90;1.00;;;;;;2547966;56;1963;-91
2021/07/21 02:53:25;191505.00;0.64;331.30;45138.00;0.15;78.78;;;;;20.80;1.00;;;;;;2555748;56;984;-91
2021/07/21 02:55:58;82110.00;0.27;142.68;0.00;0.00;0.62;;;;;20.30;1.00;;;;;;2544592;56;1343;-90
2021/07/21 02:58:32;29496.00;0.10;51.71;0.00;0.00;0.62;;;;;20.20;1.00;;;;;;2558534;56;972;-91
2021/07/21 03:01:02;169445.00;0.56;293.31;0.00;0.00;0.62;;;;;20.10;1.00;;;;;;2562252;56;990;-91
2021/07/21 03:03:32;72161.00;0.24;125.49;0.00;0.00;0.62;;;;;20.10;1.00;;;;;;2556424;55;1042;-91
2021/07/21 03:06:05;22451.00;0.07;39.51;0.00;0.00;0.62;;;;;19.90;1.00;;;;;;2576058;55;1323;-90
2021/07/21 03:08:33;116766.00;0.39;202.50;0.00;0.00;0.62;;;;;20.10;1.00;;;;;;2562313;56;995;-91
2021/07/21 03:11:03;57812.00;0.19;100.69;0.00;0.00;0.62;;;;;20.30;1.00;;;;;;2553793;56;1911;-90
2021/07/21 03:13:32;36903.00;0.12;64.53;0.00;0.00;0.62;;;;;20.20;1.00;;;;;;2557100;56;979;-91
2021/07/21 03:16:00;133559.00;0.45;231.47;38762.00;0.13;67.75;;;;;20.20;1.00;;;;;;2557315;56;1275;-90
2021/07/21 03:18:29;249900.00;0.83;431.78;0.00;0.00;0.62;;;;;20.30;1.00;;;;;;2552937;56;1100;-91
2021/07/21 03:20:58;228680.00;0.76;395.28;31629.00;0.11;55.40;;;;;20.40;1.00;;;;;;2547040;56;995;-90
2021/07/21 03:23:28;54844.00;0.18;95.56;0.00;0.00;0.62;;;;;20.30;1.00;;;;;;2547111;56;998;-92
2021/07/21 03:25:59;63056.00;0.21;109.76;0.00;0.00;0.62;;;;;20.40;1.00;;;;;;2539843;56;1335;-91
2021/07/21 03:28:30;32846.00;0.11;57.51;0.00;0.00;0.62;;;;;20.60;1.00;;;;;;2547746;56;989;-91
2021/07/21 03:30:58;86608.00;0.29;150.45;0.00;0.00;0.62;;;;;20.20;1.00;;;;;;2549104;56;1966;-90
2021/07/21 03:33:28;121221.00;0.40;210.19;23458.00;0.08;41.26;;;;;20.10;1.00;;;;;;2557546;56;1021;-92
2021/07/21 03:36:00;81190.00;0.27;141.09;0.00;0.00;0.62;;;;;20.20;1.00;;;;;;2557512;56;1414;-91
2021/07/21 03:38:29;297510.00;0.99;513.64;74841.00;0.25;130.12;;;;;20.00;1.00;;;;;;2552291;56;970;-91
2021/07/21 03:40:57;12808.00;0.04;22.81;0.00;0.00;0.62;;;;;20.00;1.00;;;;;;2547213;56;982;-88
2021/07/21 03:43:25;310419.00;1.03;535.83;58885.00;0.20;102.55;;;;;19.50;1.00;;;;;;2554407;56;961;-88
2021/07/21 03:45:57;121770.00;0.41;211.14;0.00;0.00;0.62;;;;;19.20;1.00;;;;;;2553907;56;1418;-88
2021/07/21 03:48:25;77560.00;0.26;134.82;0.00;0.00;0.62;;;;;19.00;1.00;;;;;;2562661;56;969;-89
2021/07/21 03:50:56;204641.00;0.68;353.91;0.00;0.00;0.62;;;;;19.30;1.00;;;;;;2552164;56;1966;-88
2021/07/21 03:53:24;247897.00;0.83;428.33;0.00;0.00;0.62;;;;;19.50;1.00;;;;;;2551681;56;989;-88
2021/07/21 03:55:51;77019.00;0.26;133.89;0.00;0.00;0.62;;;;;19.80;1.00;;;;;;2549010;56;1244;-90
2021/07/21 03:58:18;56309.00;0.19;98.10;0.00;0.00;0.62;;;;;19.80;1.00;;;;;;2552817;56;969;-89
2021/07/21 04:00:46;104926.00;0.35;182.07;27843.00;0.09;48.85;;;;;19.80;1.00;;;;;;2557422;56;969;-89
2021/07/21 04:03:15;271767.00;0.91;469.38;31072.00;0.10;54.44;;;;;20.30;1.00;;;;;;2555413;56;1030;-90
2021/07/21 04:05:43;55152.00;0.18;96.10;0.00;0.00;0.62;;;;;20.40;1.00;;;;;;2551490;56;953;-90
2021/07/21 04:08:11;49773.00;0.17;86.79;0.00;0.00;0.62;;;;;20.20;1.00;;;;;;2556023;56;1048;-90
2021/07/21 04:10:39;66317.00;0.22;115.40;0.00;0.00;0.62;;;;;20.20;1.00;;;;;;2556315;56;1948;-90
2021/07/21 04:13:07;43017.00;0.14;75.11;0.00;0.00;0.62;;;;;20.20;1.00;;;;;;2558138;56;985;-90
2021/07/21 04:15:35;267121.00;0.89;461.39;0.00;0.00;0.62;;;;;20.30;1.00;;;;;;2562509;56;976;-90
2021/07/21 04:18:03;74707.00;0.25;129.89;0.00;0.00;0.62;;;;;20.40;1.00;;;;;;2560409;56;1446;-90
2021/07/21 04:20:33;23108.00;0.08;40.65;0.00;0.00;0.62;;;;;20.80;1.00;;;;;;2558325;56;923;-90
2021/07/21 04:23:02;283808.00;0.95;490.08;71784.00;0.24;124.84;;;;;20.50;1.00;;;;;;2565279;55;1126;-90
2021/07/21 04:25:31;56400.00;0.19;98.25;0.00;0.00;0.62;;;;;20.60;1.00;;;;;;2578604;55;926;-90
2021/07/21 04:28:00;115575.00;0.39;200.45;0.00;0.00;0.62;;;;;21.10;1.00;;;;;;2565248;55;1468;-89
2021/07/21 04:30:30;115312.00;0.38;200.00;0.00;0.00;0.62;;;;;21.30;1.00;;;;;;2565063;55;1962;-90
2021/07/21 04:32:58;188906.00;0.63;326.82;0.00;0.00;0.62;;;;;21.10;1.00;;;;;;2577618;55;1036;-91
2021/07/21 04:35:27;155015.00;0.52;268.45;0.00;0.00;0.62;;;;;20.90;1.00;;;;;;2578677;55;943;-89
2021/07/21 04:37:57;159670.00;0.53;276.47;0.00;0.00;0.62;;;;;20.80;1.00;;;;;;2578438;55;1263;-89
2021/07/21 04:40:25;27286.00;0.09;47.89;0.00;0.00;0.62;;;;;20.90;1.00;;;;;;2578607;55;914;-91
2021/07/21 04:42:53;79486.00;0.26;138.15;0.00;0.00;0.62;;;;;21.50;1.00;;;;;;2564646;55;995;-90
2021/07/21 04:45:21;190815.00;0.64;330.11;0.00;0.00;0.62;;;;;21.90;1.00;;;;;;2565189;55;943;-90
2021/07/21 04:47:49;63544.00;0.21;110.60;0.00;0.00;0.62;;;;;21.60;1.00;;;;;;2562540;56;1388;-90
2021/07/21 04:50:20;68226.00;0.23;118.69;0.00;0.00;0.62;;;;;21.70;1.00;;;;;;2558213;56;1956;-91
2021/07/21 04:52:49;124629.00;0.42;216.07;0.00;0.00;0.62;;;;;22.20;1.00;;;;;;2560400;56;1039;-90
2021/07/21 04:55:18;170181.00;0.57;294.58;67975.00;0.23;118.26;;;;;22.40;1.00;;;;;;2557454;56;941;-90
2021/07/21 05:41:36;287303.00;0.96;496.09;100999.00;0.34;175.30;;;;;23.10;1.00;;;;;;2582661;55;401;-91
2021/07/21 07:47:57;;;;;;;;;;;;;;;;;;;;;
2021/07/21 09:34:16;673.00;0.00;1.79;0.00;0.00;0.62;;;;;28.90;1.00;;;;;;2543118;41;2868;31
2021/07/21 12:43:58;669666.00;2.23;1154.67;164952.00;0.55;285.57;;;;;28.70;1.00;;;;;;2577231;56;405;-89
2021/07/21 12:56:26;378126.00;1.26;652.20;50927.00;0.17;88.79;;;;;29.10;1.00;;;;;;2582672;55;971;-91
2021/07/21 13:26:30;97834.00;0.33;169.83;0.00;0.00;0.62;;;;;28.60;1.00;;;;;;2540129;41;1853;31
2021/07/21 14:14:53;81442.00;0.27;141.53;0.00;0.00;0.62;;;;;29.50;1.00;;;;;;2576523;56;817;-90
2021/07/21 14:42:31;456222.00;1.52;786.49;59281.00;0.20;103.23;;;;;28.50;1.00;;;;;;2571302;56;559;-90
2021/07/21 14:54:51;230957.00;0.77;399.20;0.00;0.00;0.62;;;;;28.70;1.00;;;;;;2557912;40;1922;31
2021/07/21 15:09:57;677505.00;2.26;1168.25;27643.00;0.09;48.50;;;;;27.90;1.00;;;;;;2575769;55;1897;-89
2021/07/21 15:37:20;231950.00;0.77;400.90;0.00;0.00;0.62;;;;;28.60;1.00;;;;;;2571684;55;615;-89
2021/07/21 15:42:16;66813.00;0.22;116.25;0.00;0.00;0.62;;;;;28.30;1.00;;;;;;2577830;55;880;-90
2021/07/21 15:44:43;267225.00;0.89;461.57;0.00;0.00;0.62;;;;;28.00;1.00;;;;;;2578913;55;916;-89
2021/07/21 15:52:08;37761.00;0.13;66.01;0.00;0.00;0.62;;;;;27.90;1.00;;;;;;2577649;55;1884;-90
2021/07/21 16:16:54;30388.00;0.10;53.25;0.00;0.00;0.62;;;;;27.70;1.00;;;;;;2572433;56;424;-91
2021/07/21 16:39:10;76704.00;0.26;133.34;0.00;0.00;0.62;;;;;27.20;1.00;;;;;;2567583;55;1968;-89
2021/07/21 16:46:34;98476.00;0.33;170.94;0.00;0.00;0.62;;;;;27.50;1.00;;;;;;2576615;55;595;-88
2021/07/21 16:51:29;0.00;0.00;0.62;0.00;0.00;0.62;;;;;27.60;1.00;;;;;;2581663;55;1874;-89
2021/07/21 17:24:12;70734.00;0.24;123.03;0.00;0.00;0.62;;;;;26.80;1.00;;;;;;2577264;56;397;-92
2021/07/21 17:36:46;0.00;0.00;0.62;0.00;0.00;0.62;;;;;27.10;1.00;;;;;;2577246;56;401;-91
2021/07/21 17:44:37;104368.00;0.35;181.11;24296.00;0.08;42.71;;;;;27.10;1.00;;;;;;2577275;56;398;-89
2021/07/21 17:57:26;226954.00;0.76;392.31;66150.00;0.22;115.11;;;;;26.90;1.00;;;;;;2572067;56;398;-89
2021/07/21 18:07:53;40375.00;0.13;70.54;0.00;0.00;0.62;;;;;27.00;1.00;;;;;;2577220;56;401;-92
2021/07/21 18:15:28;58325.00;0.19;101.58;0.00;0.00;0.62;;;;;27.00;1.00;;;;;;2577225;56;498;-92
2021/07/21 18:23:18;0.00;0.00;0.62;0.00;0.00;0.62;;;;;27.00;1.00;;;;;;2577207;56;401;-90
2021/07/21 18:28:13;8284.00;0.03;14.98;0.00;0.00;0.62;;;;;26.70;1.00;;;;;;2582392;55;401;-92
2021/07/21 18:38:11;226364.00;0.75;391.29;16358.00;0.05;28.96;;;;;27.60;1.00;;;;;;2582589;55;987;-91
2021/07/21 18:45:54;125691.00;0.42;217.90;17542.00;0.06;31.01;;;;;26.90;1.00;;;;;;2577189;56;402;-91
2021/07/21 18:48:26;264590.00;0.88;457.04;0.00;0.00;0.62;;;;;26.90;1.00;;;;;;2573583;56;804;-91
2021/07/21 19:46:45;384668.00;1.28;663.45;170357.00;0.57;294.88;;;;;26.10;1.00;;;;;;2536253;55;1533;31
2021/07/21 20:22:32;404565.00;1.35;697.65;59823.00;0.20;104.17;;;;;25.90;1.00;;;;;;2576335;55;574;-89
2021/07/21 20:24:59;581576.00;1.94;1002.42;66587.00;0.22;115.86;;;;;25.60;1.00;;;;;;2576671;55;1029;-86
2021/07/21 20:27:26;580891.00;1.94;1001.24;66464.00;0.22;115.65;;;;;25.60;1.00;;;;;;2578845;55;1162;-86
2021/07/21 20:29:53;432445.00;1.44;745.59;78567.00;0.26;136.56;;;;;25.60;1.00;;;;;;2576481;55;1365;-86
2021/07/21 20:32:20;502007.00;1.67;865.28;59570.00;0.20;103.73;;;;;25.50;1.00;;;;;;2574856;56;1964;-86
2021/07/21 20:34:48;621835.00;2.07;1071.94;129569.00;0.43;224.59;;;;;25.60;1.00;;;;;;2569699;55;1272;-86
2021/07/21 20:37:15;517694.00;1.73;892.29;64045.00;0.21;111.47;;;;;25.50;1.00;;;;;;2576458;55;1145;-88
2021/07/21 20:39:43;627441.00;2.09;1081.63;76670.00;0.26;133.28;;;;;25.40;1.00;;;;;;2565496;55;1300;-89
2021/07/21 20:42:10;348472.00;1.16;601.23;72387.00;0.24;125.89;;;;;25.30;1.00;;;;;;2578938;55;987;-87
2021/07/21 20:44:37;407081.00;1.36;701.98;63998.00;0.21;111.39;;;;;25.30;1.00;;;;;;2578870;55;1045;-87
2021/07/21 20:47:05;349846.00;1.17;603.60;115798.00;0.39;200.83;;;;;25.30;1.00;;;;;;2576203;55;1000;-88
2021/07/21 20:49:31;627576.00;2.09;1081.86;159012.00;0.53;275.34;;;;;25.30;1.00;;;;;;2575878;55;1358;-87
2021/07/21 20:51:59;344856.00;1.15;595.02;83893.00;0.28;145.76;;;;;25.40;1.00;;;;;;2576592;55;1952;-88
2021/07/21 20:54:26;339702.00;1.13;586.16;74077.00;0.25;128.80;;;;;25.20;1.00;;;;;;2578802;55;1001;-86
2021/07/21 20:56:55;405338.00;1.35;698.98;64313.00;0.21;111.93;;;;;25.00;1.00;;;;;;2576160;55;1149;-86
2021/07/21 20:59:22;526057.00;1.75;906.70;90259.00;0.30;156.75;;;;;24.80;1.00;;;;;;2574700;55;1379;-86
2021/07/21 21:01:49;416790.00;1.39;718.67;68171.00;0.23;118.60;;;;;24.90;1.00;;;;;;2574871;56;1110;-86
2021/07/21 21:04:17;535312.00;1.78;922.64;62896.00;0.21;109.48;;;;;24.90;1.00;;;;;;2574301;56;1181;-86
2021/07/21 21:06:44;399747.00;1.33;689.37;72785.00;0.24;126.57;;;;;25.10;1.00;;;;;;2574261;56;1168;-85
2021/07/21 21:09:11;503916.00;1.68;868.57;103769.00;0.35;180.08;;;;;24.90;1.00;;;;;;2574696;56;1464;-87
2021/07/21 21:11:39;305795.00;1.02;527.88;70331.00;0.23;122.33;;;;;24.80;1.00;;;;;;2574336;56;1922;-86
2021/07/21 21:14:07;412521.00;1.38;711.33;71300.00;0.24;124.01;;;;;24.70;1.00;;;;;;2574489;56;1129;-86
2021/07/21 21:16:34;370344.00;1.23;638.83;57650.00;0.19;100.41;;;;;24.70;1.00;;;;;;2576951;55;1195;-86
2021/07/21 21:19:01;401549.00;1.34;692.47;68006.00;0.23;118.31;;;;;24.70;1.00;;;;;;2577006;55;1124;-86
2021/07/21 21:21:28;428711.00;1.43;739.17;67184.00;0.22;116.89;;;;;24.70;1.00;;;;;;2574352;56;1348;-85
2021/07/21 21:23:55;318709.00;1.06;550.08;66261.00;0.22;115.30;;;;;24.60;1.00;;;;;;2574405;56;1061;-86
2021/07/21 21:26:22;378996.00;1.26;653.70;71559.00;0.24;124.45;;;;;24.60;1.00;;;;;;2564162;55;1204;-86
2021/07/21 21:28:49;298670.00;1.00;515.63;75732.00;0.25;131.66;;;;;24.50;1.00;;;;;;2574951;56;1196;-86
2021/07/21 21:31:17;338468.00;1.13;584.04;71634.00;0.24;124.58;;;;;24.50;1.00;;;;;;2574329;56;1955;-86
2021/07/21 21:33:44;406037.00;1.35;700.18;65442.00;0.22;113.88;;;;;24.50;1.00;;;;;;2574388;56;1089;-86
2021/07/21 21:36:11;638890.00;2.13;1101.42;87737.00;0.29;152.40;;;;;24.40;1.00;;;;;;2574667;55;1141;-86
2021/07/21 21:38:38;401046.00;1.34;691.60;70555.00;0.24;122.72;;;;;24.40;1.00;;;;;;2564223;55;1205;-87
2021/07/21 21:41:05;500701.00;1.67;863.03;73496.00;0.24;127.80;;;;;24.30;1.00;;;;;;2576598;55;1368;-89
2021/07/21 21:43:32;469236.00;1.56;808.88;79374.00;0.26;137.96;;;;;24.30;1.00;;;;;;2578414;55;1698;-86
2021/07/21 21:45:59;382685.00;1.28;660.04;120638.00;0.40;209.18;;;;;24.10;1.00;;;;;;2575398;56;1083;-86
2021/07/21 21:48:27;229082.00;0.76;395.97;71094.00;0.24;123.65;;;;;24.20;1.00;;;;;;2573508;55;1176;-85
2021/07/21 21:50:54;344540.00;1.15;594.48;52584.00;0.18;91.65;;;;;24.20;1.00;;;;;;2578029;55;1902;-86
2021/07/21 21:53:21;248682.00;0.83;429.68;69791.00;0.23;121.40;;;;;24.20;1.00;;;;;;2564755;55;1180;-86
2021/07/21 21:55:48;234672.00;0.78;405.59;65434.00;0.22;113.87;;;;;24.30;1.00;;;;;;2568516;55;1232;-86
2021/07/21 21:58:15;230322.00;0.77;398.10;63906.00;0.21;111.23;;;;;24.60;1.00;;;;;;2567158;55;1164;-84
2021/07/21 22:00:42;190640.00;0.64;329.81;66245.00;0.22;115.27;;;;;24.40;1.00;;;;;;2574454;56;1413;-84
2021/07/21 22:03:09;239844.00;0.80;414.48;63967.00;0.21;111.33;;;;;24.30;1.00;;;;;;2574959;55;1156;-84
2021/07/21 22:05:37;523155.00;1.74;901.70;131902.00;0.44;228.61;;;;;24.50;1.00;;;;;;2574812;56;1130;-84
2021/07/21 22:08:06;348555.00;1.16;601.38;71162.00;0.24;123.77;;;;;24.40;1.00;;;;;;2574447;56;1148;-84
2021/07/21 22:10:36;646551.00;2.16;1114.67;70553.00;0.24;122.72;;;;;24.40;1.00;;;;;;2573908;56;1429;-87
2021/07/21 22:13:03;341637.00;1.14;589.49;66487.00;0.22;115.69;;;;;24.30;1.00;;;;;;2573319;55;1976;-87
2021/07/21 22:15:34;288978.00;0.96;498.97;69718.00;0.23;121.27;;;;;24.00;1.00;;;;;;2574985;56;1143;-87
2021/07/21 22:18:00;414895.00;1.38;715.41;55374.00;0.18;96.48;;;;;23.90;1.00;;;;;;2574719;55;1094;-87
2021/07/21 22:20:27;342389.00;1.14;590.78;65111.00;0.22;113.31;;;;;23.80;1.00;;;;;;2574251;56;1359;-86
2021/07/21 22:23:00;190143.00;0.63;328.95;66280.00;0.22;115.33;;;;;24.00;1.00;;;;;;2574571;56;1104;-84
2021/07/21 22:25:30;203703.00;0.68;352.30;74581.00;0.25;129.68;;;;;24.40;1.00;;;;;;2563315;55;1133;-84
2021/07/21 22:27:59;33429.00;0.11;58.52;0.00;0.00;0.62;;;;;24.50;1.00;;;;;;2574935;56;1065;-84
2021/07/21 22:30:30;171947.00;0.57;297.62;64519.00;0.22;112.29;;;;;24.50;1.00;;;;;;2574510;56;1447;-87
2021/07/21 22:33:01;315333.00;1.05;544.28;67668.00;0.23;117.73;;;;;23.90;1.00;;;;;;2573197;56;1906;-87
2021/07/21 22:35:29;76683.00;0.26;133.31;0.00;0.00;0.62;;;;;23.30;1.00;;;;;;2572690;56;1191;-87
2021/07/21 22:37:57;248433.00;0.83;429.26;74145.00;0.25;128.92;;;;;23.10;1.00;;;;;;2573692;56;1133;-87
2021/07/21 22:40:25;180614.00;0.60;312.55;0.00;0.00;0.62;;;;;22.90;1.00;;;;;;2577270;55;1545;-87
2021/07/21 22:42:52;62051.00;0.21;108.02;0.00;0.00;0.62;;;;;23.10;1.00;;;;;;2575295;56;1176;-87
2021/07/21 22:45:22;202170.00;0.67;349.66;0.00;0.00;0.62;;;;;23.10;1.00;;;;;;2575015;55;1093;-87
2021/07/21 22:47:49;85550.00;0.29;148.62;0.00;0.00;0.62;;;;;23.10;1.00;;;;;;2573155;56;1148;-85
2021/07/21 22:50:17;150591.00;0.50;260.83;16708.00;0.06;29.57;;;;;23.40;1.00;;;;;;2572782;56;1323;-84
2021/07/21 22:52:44;250762.00;0.84;433.26;86566.00;0.29;150.38;;;;;23.60;1.00;;;;;;2575390;55;1956;-84
2021/07/21 22:55:15;243563.00;0.81;420.88;65678.00;0.22;114.29;;;;;23.80;1.00;;;;;;2572214;56;1228;-85
2021/07/21 22:57:45;146889.00;0.49;254.45;16463.00;0.05;29.14;;;;;23.80;1.00;;;;;;2572700;56;1189;-84
2021/07/21 23:03:16;300272.00;1.00;518.39;17892.00;0.06;31.62;;;;;23.70;1.00;;;;;;2570158;56;571;-88
2021/07/21 23:06:21;64811.00;0.22;112.79;0.00;0.00;0.62;;;;;23.60;1.00;;;;;;2572018;56;1603;-88
2021/07/21 23:09:25;30520.00;0.10;53.48;0.00;0.00;0.62;;;;;23.80;1.00;;;;;;2572244;56;1633;-89
2021/07/21 23:12:29;30222.00;0.10;52.97;0.00;0.00;0.62;;;;;24.10;1.00;;;;;;2570939;56;1902;-89
2021/07/21 23:15:11;36922.00;0.12;64.56;0.00;0.00;0.62;;;;;24.20;1.00;;;;;;2570813;55;1134;-87
2021/07/21 23:17:40;3923.00;0.01;7.42;0.00;0.00;0.62;;;;;24.30;1.00;;;;;;2572819;56;1069;-86
2021/07/21 23:20:07;338530.00;1.13;584.15;90534.00;0.30;157.23;;;;;24.30;1.00;;;;;;2570326;56;1322;-87
2021/07/21 23:22:36;231407.00;0.77;399.97;68657.00;0.23;119.44;;;;;24.20;1.00;;;;;;2572413;56;1141;-86
2021/07/21 23:25:04;209105.00;0.70;361.60;58714.00;0.20;102.25;;;;;24.00;1.00;;;;;;2570690;56;1003;-88
2021/07/21 23:27:35;192250.00;0.64;332.58;68859.00;0.23;119.79;;;;;23.60;1.00;;;;;;2570469;56;1096;-89
2021/07/21 23:30:03;341120.00;1.14;588.60;70985.00;0.24;123.46;;;;;23.30;1.00;;;;;;2570593;56;1412;-88
2021/07/21 23:32:31;302463.00;1.01;522.15;67290.00;0.22;117.08;;;;;22.90;1.00;;;;;;2570788;56;1906;-88
2021/07/21 23:35:00;118064056.00;393.55;66663516.00;66892.00;0.22;116.39;;;;;22.80;1.00;;;;;;2570763;56;1138;-88
2021/07/21 23:37:29;305462.00;1.02;527.31;72684.00;0.24;126.40;;;;;22.90;1.00;;;;;;2570941;56;1090;-88
2021/07/21 23:39:56;435920.00;1.45;751.57;63903.00;0.21;111.22;;;;;22.80;1.00;;;;;;2572647;56;1740;-88
2021/07/21 23:42:23;303808.00;1.01;524.47;64292.00;0.21;111.90;;;;;22.90;1.00;;;;;;2572921;56;1184;-89
2021/07/21 23:44:50;333016.00;1.11;574.67;59802.00;0.20;104.13;;;;;23.00;1.00;;;;;;2572734;56;1176;-89
2021/07/21 23:47:17;441376.00;1.47;760.95;69784.00;0.23;121.39;;;;;23.10;1.00;;;;;;2570944;56;1083;-88
2021/07/21 23:49:44;328031.00;1.09;566.10;72281.00;0.24;125.70;;;;;23.10;1.00;;;;;;2570539;56;1313;-88
2021/07/21 23:52:12;231247.00;0.77;399.69;68596.00;0.23;119.33;;;;;23.40;1.00;;;;;;2570357;56;1902;-88
2021/07/21 23:54:39;491875.00;1.64;847.84;92606.00;0.31;160.81;;;;;23.40;1.00;;;;;;2570556;56;1140;-89
2021/07/21 23:57:06;357363.00;1.19;616.52;59730.00;0.20;104.01;;;;;22.70;1.00;;;;;;2570483;56;1075;-88
2021/07/21 23:59:32;195617.00;0.65;338.38;60171.00;0.20;104.77;;;;;22.50;1.00;;;;;;2570599;56;1145;-88
